createdAt,value
2023-04-14T00:01:36.440Z,97894.66
2023-04-14T00:04:06.039Z,97889.25
2023-04-14T00:06:34.015Z,97881.22
2023-04-14T00:09:02.108Z,97886.41
2023-04-14T00:11:30.211Z,97883.78
2023-04-14T00:13:58.370Z,97870.75
2023-04-14T00:16:26.209Z,97877.34
2023-04-14T00:18:54.135Z,97877.13
2023-04-14T00:21:23.361Z,97888.16
2023-04-14T00:23:51.825Z,97883.63
2023-04-14T00:26:19.774Z,97883.88
2023-04-14T00:28:47.741Z,97887.47
2023-04-14T00:31:17.335Z,97887.91
2023-04-14T00:33:45.263Z,97892.28
2023-04-14T00:36:13.087Z,97895.06
2023-04-14T00:38:42.294Z,97895.34
2023-04-14T00:41:10.182Z,97900.16
2023-04-14T00:43:38.096Z,97901.91
2023-04-14T00:46:07.009Z,97903.72
2023-04-14T00:48:35.691Z,97902.28
2023-04-14T00:51:04.834Z,97910.44
2023-04-14T00:53:33.299Z,97906.94
2023-04-14T00:56:02.667Z,97907.84
2023-04-14T00:58:31.581Z,97904.69
2023-04-14T01:00:59.511Z,97906.84
2023-04-14T01:03:27.620Z,97905.25
2023-04-14T01:05:56.369Z,97915.69
2023-04-14T01:08:25.043Z,97930.19
2023-04-14T01:11:03.011Z,97925.22
2023-04-14T01:13:42.197Z,97927.97
2023-04-14T01:16:19.060Z,97933.22
2023-04-14T01:18:54.592Z,97934.81
2023-04-14T01:21:29.641Z,97934.41
2023-04-14T01:24:14.903Z,97934.84
2023-04-14T01:26:46.982Z,97939.84
2023-04-14T01:29:38.041Z,97945.41
2023-04-14T01:32:10.588Z,97939.53
2023-04-14T01:34:44.740Z,97946.34
2023-04-14T01:37:16.768Z,97950.78
2023-04-14T01:39:51.110Z,97949.72
2023-04-14T01:42:24.302Z,97954.41
2023-04-14T01:44:58.215Z,97963.47
2023-04-14T01:47:29.921Z,97954.34
2023-04-14T01:50:02.107Z,97961.53
2023-04-14T01:52:32.508Z,97960.53
2023-04-14T01:55:05.809Z,97960.84
2023-04-14T01:57:36.947Z,97958.66
2023-04-14T02:00:08.882Z,97960.53
2023-04-14T02:02:45.364Z,97965.38
2023-04-14T02:05:14.471Z,97967.56
2023-04-14T02:07:46.995Z,97974.69
2023-04-14T02:10:17.251Z,97969.47
2023-04-14T02:12:48.337Z,97968.31
2023-04-14T02:15:18.755Z,97967.28
2023-04-14T02:17:50.421Z,97973.09
2023-04-14T02:20:19.783Z,97967.44
2023-04-14T02:22:48.993Z,97970.88
2023-04-14T02:25:17.413Z,97973.66
2023-04-14T02:27:51.095Z,97963.06
2023-04-14T02:30:25.762Z,97969.56
2023-04-14T02:32:58.856Z,97964.91
2023-04-14T02:35:29.376Z,97962.81
2023-04-14T02:38:08.286Z,97965.34
2023-04-14T02:40:40.348Z,97959.19
2023-04-14T02:43:14.922Z,97971.13
2023-04-14T02:45:49.040Z,97965.38
2023-04-14T02:48:24.878Z,97965.38
2023-04-14T02:50:55.912Z,97971.03
2023-04-14T02:53:27.933Z,97965.38
2023-04-14T02:56:09.244Z,97969.97
2023-04-14T02:58:41.864Z,97970.97
2023-04-14T03:01:10.923Z,97970.19
2023-04-14T03:03:40.632Z,97969.91
2023-04-14T03:06:15.522Z,97973.03
2023-04-14T03:08:45.048Z,97975.00
2023-04-14T03:11:15.556Z,97970.06
2023-04-14T03:13:46.100Z,97972.63
2023-04-14T03:16:15.114Z,97976.91
2023-04-14T03:18:45.367Z,97964.72
2023-04-14T03:21:16.656Z,97964.91
2023-04-14T03:23:46.113Z,97968.50
2023-04-14T03:26:19.392Z,97967.34
2023-04-14T03:28:48.654Z,97969.75
2023-04-14T03:31:19.685Z,97972.47
2023-04-14T03:33:57.335Z,97975.41
2023-04-14T03:36:33.022Z,97974.44
2023-04-14T03:39:03.425Z,97974.38
2023-04-14T03:41:37.814Z,97969.34
2023-04-14T03:44:10.809Z,97962.28
2023-04-14T03:46:38.770Z,97972.19
2023-04-14T03:49:11.382Z,97959.16
2023-04-14T03:51:42.793Z,97962.66
2023-04-14T03:54:12.627Z,97961.69
2023-04-14T03:56:41.377Z,97964.41
2023-04-14T03:59:15.375Z,97964.13
2023-04-14T04:01:46.754Z,97971.25
2023-04-14T04:04:16.804Z,97979.16
2023-04-14T04:06:45.085Z,97973.84
2023-04-14T04:09:15.860Z,97975.91
2023-04-14T04:11:47.894Z,97974.09
2023-04-14T04:14:19.981Z,97978.91
2023-04-14T04:16:49.604Z,97979.56
2023-04-14T04:19:21.764Z,97975.75
2023-04-14T04:21:52.610Z,97980.16
2023-04-14T04:24:24.482Z,97971.47
2023-04-14T04:26:54.377Z,97967.38
2023-04-14T04:29:23.586Z,97968.25
2023-04-14T04:31:53.831Z,97971.47
2023-04-14T04:34:26.302Z,97967.09
2023-04-14T04:36:55.438Z,97973.19
2023-04-14T04:39:23.249Z,97971.81
2023-04-14T04:41:51.989Z,97970.56
2023-04-14T04:44:20.648Z,97975.22
2023-04-14T04:46:54.272Z,97977.66
2023-04-14T04:49:27.753Z,97977.97
2023-04-14T04:51:57.585Z,97980.50
2023-04-14T04:54:27.100Z,97991.69
2023-04-14T04:56:55.289Z,97997.63
2023-04-14T04:59:23.127Z,97991.91
2023-04-14T05:01:51.258Z,97999.22
2023-04-14T05:04:19.553Z,97999.38
2023-04-14T05:06:49.043Z,97997.88
2023-04-14T05:09:17.050Z,97991.53
2023-04-14T05:11:45.174Z,97995.75
2023-04-14T05:14:13.037Z,98001.56
2023-04-14T05:16:41.007Z,97998.47
2023-04-14T05:19:08.850Z,98006.28
2023-04-14T05:21:36.814Z,98003.78
2023-04-14T05:24:09.382Z,98000.78
2023-04-14T05:26:57.770Z,98006.25
2023-04-14T05:29:25.419Z,98009.69
2023-04-14T05:31:53.473Z,98002.94
2023-04-14T05:34:22.531Z,98000.34
2023-04-14T05:36:50.881Z,98002.97
2023-04-14T05:39:20.244Z,98015.75
2023-04-14T05:41:48.209Z,98012.31
2023-04-14T05:44:16.190Z,98018.94
2023-04-14T05:46:44.088Z,98011.16
2023-04-14T05:49:12.220Z,98028.50
2023-04-14T05:51:40.735Z,98016.00
2023-04-14T05:54:08.569Z,98028.16
2023-04-14T05:56:38.331Z,98027.81
2023-04-14T05:59:06.233Z,98033.59
2023-04-14T06:01:34.510Z,98039.63
2023-04-14T06:04:05.106Z,98039.78
2023-04-14T06:06:33.540Z,98043.28
2023-04-14T06:09:01.771Z,98043.00
2023-04-14T06:11:29.884Z,98041.75
2023-04-14T06:14:01.240Z,98047.88
2023-04-14T06:16:29.255Z,98047.72
2023-04-14T06:18:57.179Z,98043.22
2023-04-14T06:21:27.324Z,98028.38
2023-04-14T06:23:55.350Z,98036.06
2023-04-14T06:26:23.329Z,98040.66
2023-04-14T06:28:51.234Z,98035.22
2023-04-14T06:31:20.880Z,98043.25
2023-04-14T06:33:48.827Z,98046.34
2023-04-14T06:36:18.196Z,98041.09
2023-04-14T06:38:46.191Z,98045.69
2023-04-14T06:41:14.204Z,98042.16
2023-04-14T06:43:42.842Z,98037.94
2023-04-14T06:46:10.958Z,98037.41
2023-04-14T06:48:40.239Z,98031.81
2023-04-14T06:51:10.592Z,98027.41
2023-04-14T06:53:39.542Z,98039.97
2023-04-14T06:56:08.411Z,98026.81
2023-04-14T06:58:36.724Z,98029.41
2023-04-14T07:01:05.256Z,98020.56
2023-04-14T07:03:34.543Z,98019.63
2023-04-14T07:06:09.231Z,98020.03
2023-04-14T07:08:37.827Z,98011.78
2023-04-14T07:11:08.635Z,98005.16
2023-04-14T07:13:36.726Z,98006.19
2023-04-14T07:16:06.383Z,98002.66
2023-04-14T07:18:35.206Z,97991.84
2023-04-14T07:21:04.139Z,97993.47
2023-04-14T07:23:35.772Z,97984.38
2023-04-14T07:26:09.468Z,97988.78
2023-04-14T07:28:38.339Z,97992.47
2023-04-14T07:31:11.903Z,97991.09
2023-04-14T07:33:40.801Z,97985.69
2023-04-14T07:36:11.601Z,97990.78
2023-04-14T07:38:49.634Z,97977.94
2023-04-14T07:41:38.642Z,97989.28
2023-04-14T07:44:25.039Z,97985.19
2023-04-14T07:46:59.903Z,97984.28
2023-04-14T07:49:35.113Z,97984.78
2023-04-14T07:52:04.767Z,97985.34
2023-04-14T07:54:36.106Z,97993.63
2023-04-14T07:57:04.538Z,97985.97
2023-04-14T07:59:35.992Z,97989.59
2023-04-14T08:02:15.770Z,97990.28
2023-04-14T08:05:13.505Z,97994.50
2023-04-14T08:07:43.221Z,97988.53
2023-04-14T08:10:14.188Z,97992.66
2023-04-14T08:12:45.805Z,97998.00
2023-04-14T08:15:20.487Z,97986.75
2023-04-14T08:17:52.666Z,97988.34
2023-04-14T08:20:23.242Z,97993.06
2023-04-14T08:22:52.169Z,97985.72
2023-04-14T08:25:22.330Z,97989.41
2023-04-14T08:27:51.338Z,97982.13
2023-04-14T08:30:23.715Z,97980.59
2023-04-14T08:32:53.306Z,97974.00
2023-04-14T08:35:37.566Z,97985.13
2023-04-14T08:38:09.505Z,97987.28
2023-04-14T08:40:41.029Z,97981.66
2023-04-14T08:43:13.837Z,97973.41
2023-04-14T08:45:44.645Z,97969.69
2023-04-14T08:48:17.161Z,97966.72
2023-04-14T08:50:56.810Z,97962.53
2023-04-14T08:53:27.538Z,97969.81
2023-04-14T08:55:59.788Z,97972.53
2023-04-14T08:58:28.251Z,97974.59
2023-04-14T09:00:59.176Z,97966.69
2023-04-14T09:03:29.661Z,97973.47
2023-04-14T09:06:01.941Z,97972.53
2023-04-14T09:08:34.200Z,97969.09
2023-04-14T09:11:05.807Z,97968.59
2023-04-14T09:13:36.045Z,97962.25
2023-04-14T09:16:06.613Z,97972.41
2023-04-14T09:18:36.541Z,97978.44
2023-04-14T09:21:30.313Z,97976.63
2023-04-14T09:23:56.056Z,97958.09
2023-04-14T09:26:26.990Z,97950.16
2023-04-14T09:28:54.856Z,97963.25
2023-04-14T09:31:24.090Z,97966.41
2023-04-14T09:33:53.584Z,97967.47
2023-04-14T09:36:23.676Z,97962.34
2023-04-14T09:38:53.461Z,97963.28
2023-04-14T09:41:23.943Z,97958.72
2023-04-14T09:43:54.878Z,97966.59
2023-04-14T09:46:23.064Z,97963.25
2023-04-14T09:48:52.562Z,97960.13
2023-04-14T09:51:23.971Z,97956.59
2023-04-14T09:53:56.000Z,97963.00
2023-04-14T09:56:29.326Z,97947.94
2023-04-14T09:59:01.089Z,97956.94
2023-04-14T10:01:32.043Z,97958.75
2023-04-14T10:04:01.623Z,97960.03
2023-04-14T10:06:31.294Z,97966.00
2023-04-14T10:09:00.157Z,97948.78
2023-04-14T10:11:35.169Z,97945.53
2023-04-14T10:14:06.370Z,97940.84
2023-04-14T10:16:35.173Z,97941.03
2023-04-14T10:19:03.832Z,97933.72
2023-04-14T10:21:32.808Z,97941.38
2023-04-14T10:24:01.725Z,97926.13
2023-04-14T10:26:30.100Z,97914.88
2023-04-14T10:28:58.184Z,97917.81
2023-04-14T10:31:33.863Z,97921.03
2023-04-14T10:34:08.645Z,97913.63
2023-04-14T10:36:37.246Z,97916.00
2023-04-14T10:39:07.099Z,97909.88
2023-04-14T10:41:47.437Z,97899.16
2023-04-14T10:44:27.187Z,97900.00
2023-04-14T10:46:57.996Z,97899.00
2023-04-14T10:49:31.712Z,97891.09
2023-04-14T10:52:02.074Z,97882.13
2023-04-14T10:54:48.953Z,97886.06
2023-04-14T10:57:18.564Z,97876.69
2023-04-14T10:59:47.477Z,97882.63
2023-04-14T11:02:28.093Z,97883.06
2023-04-14T11:05:06.095Z,97871.19
2023-04-14T11:07:40.306Z,97871.91
2023-04-14T11:10:29.781Z,97856.53
2023-04-14T11:13:04.209Z,97855.03
2023-04-14T11:15:48.291Z,97850.13
2023-04-14T11:18:18.940Z,97852.09
2023-04-14T11:20:47.298Z,97857.78
2023-04-14T11:23:16.499Z,97850.75
2023-04-14T11:25:45.671Z,97864.22
2023-04-14T11:28:13.682Z,97867.47
2023-04-14T11:30:43.056Z,97856.56
2023-04-14T11:33:11.115Z,97862.22
2023-04-14T11:35:44.475Z,97846.41
2023-04-14T11:38:16.184Z,97845.06
2023-04-14T11:40:50.993Z,97843.78
2023-04-14T11:43:21.456Z,97845.06
2023-04-14T11:45:52.711Z,97835.09
2023-04-14T11:48:22.043Z,97843.09
2023-04-14T11:50:53.080Z,97833.81
2023-04-14T11:53:21.977Z,97833.56
2023-04-14T11:55:51.979Z,97833.97
2023-04-14T11:58:23.746Z,97828.03
2023-04-14T12:00:54.328Z,97830.94
2023-04-14T12:03:28.579Z,97833.75
2023-04-14T12:06:00.677Z,97840.38
2023-04-14T12:08:31.517Z,97834.88
2023-04-14T12:11:00.090Z,97827.09
2023-04-14T12:13:29.294Z,97832.06
2023-04-14T12:15:58.675Z,97821.44
2023-04-14T12:18:30.202Z,97808.22
2023-04-14T12:21:03.977Z,97804.56
2023-04-14T12:23:36.154Z,97797.56
2023-04-14T12:26:04.478Z,97789.69
2023-04-14T12:28:34.915Z,97790.44
2023-04-14T12:31:04.981Z,97784.25
2023-04-14T12:33:33.978Z,97775.09
2023-04-14T12:36:08.193Z,97767.56
2023-04-14T12:38:37.497Z,97762.22
2023-04-14T12:41:06.243Z,97760.38
2023-04-14T12:43:36.182Z,97760.13
2023-04-14T12:46:06.359Z,97761.72
2023-04-14T12:48:43.960Z,97756.00
2023-04-14T12:51:17.506Z,97751.06
2023-04-14T12:53:48.093Z,97746.00
2023-04-14T12:56:19.444Z,97750.13
2023-04-14T12:58:49.539Z,97763.44
2023-04-14T13:01:19.325Z,97754.53
2023-04-14T13:03:50.393Z,97753.25
2023-04-14T13:06:22.020Z,97743.47
2023-04-14T13:08:56.373Z,97740.94
2023-04-14T13:11:26.427Z,97745.72
2023-04-14T13:13:54.918Z,97733.75
2023-04-14T13:16:26.978Z,97730.94
2023-04-14T13:18:55.608Z,97735.94
2023-04-14T13:21:24.905Z,97724.00
2023-04-14T13:23:52.953Z,97724.72
2023-04-14T13:26:20.828Z,97710.25
2023-04-14T13:28:50.429Z,97715.31
2023-04-14T13:31:19.160Z,97702.47
2023-04-14T13:33:47.220Z,97698.16
2023-04-14T13:36:15.151Z,97689.00
2023-04-14T13:38:44.497Z,97692.06
2023-04-14T13:41:15.160Z,97684.94
2023-04-14T13:43:43.131Z,97682.72
2023-04-14T13:46:11.343Z,97686.06
2023-04-14T13:48:39.304Z,97667.06
2023-04-14T13:51:07.429Z,97671.47
2023-04-14T13:53:35.312Z,97678.44
2023-04-14T13:56:04.927Z,97673.31
2023-04-14T13:58:32.939Z,97674.25
2023-04-14T14:01:10.436Z,97667.25
2023-04-14T14:03:42.154Z,97667.03
2023-04-14T14:06:10.512Z,97666.53
2023-04-14T14:08:39.359Z,97664.16
2023-04-14T14:11:09.404Z,97659.03
2023-04-14T14:13:40.072Z,97659.31
2023-04-14T14:16:09.535Z,97651.69
2023-04-14T14:18:40.786Z,97650.84
2023-04-14T14:21:09.433Z,97647.31
2023-04-14T14:23:37.411Z,97647.22
2023-04-14T14:26:07.438Z,97648.34
2023-04-14T14:28:36.656Z,97646.38
2023-04-14T14:31:07.548Z,97644.00
2023-04-14T14:33:35.469Z,97639.22
2023-04-14T14:36:03.946Z,97631.63
2023-04-14T14:38:32.621Z,97633.09
2023-04-14T14:41:01.224Z,97639.63
2023-04-14T14:43:29.105Z,97639.03
2023-04-14T14:45:58.624Z,97644.50
2023-04-14T14:48:26.727Z,97642.94
2023-04-14T14:50:57.203Z,97643.50
2023-04-14T14:53:26.898Z,97654.47
2023-04-14T14:55:55.781Z,97641.59
2023-04-14T14:58:29.911Z,97640.66
2023-04-14T15:01:08.829Z,97644.38
2023-04-14T15:03:38.625Z,97646.09
2023-04-14T15:06:08.367Z,97658.94
2023-04-14T15:08:36.900Z,97642.00
2023-04-14T15:11:05.506Z,97644.31
2023-04-14T15:13:35.311Z,97638.94
2023-04-14T15:16:05.150Z,97644.00
2023-04-14T15:18:35.779Z,97637.78
2023-04-14T15:21:06.566Z,97638.66
2023-04-14T15:23:44.858Z,97640.34
2023-04-14T15:26:19.862Z,97637.34
2023-04-14T15:28:49.532Z,97645.63
2023-04-14T15:31:21.805Z,97648.28
2023-04-14T15:33:55.839Z,97641.50
2023-04-14T15:36:24.453Z,97642.13
2023-04-14T15:38:54.161Z,97645.06
2023-04-14T15:41:25.068Z,97638.56
2023-04-14T15:44:14.863Z,97633.59
2023-04-14T15:46:53.506Z,97635.06
2023-04-14T15:49:29.268Z,97632.81
2023-04-14T15:52:16.926Z,97631.91
2023-04-14T15:54:51.663Z,97632.22
2023-04-14T15:57:49.269Z,97633.88
2023-04-14T16:00:25.266Z,97631.13
2023-04-14T16:03:07.658Z,97629.28
2023-04-14T16:05:51.829Z,97623.72
2023-04-14T16:08:30.916Z,97629.13
2023-04-14T16:11:34.747Z,97627.41
2023-04-14T16:14:19.380Z,97631.63
2023-04-14T16:16:52.981Z,97627.81
2023-04-14T16:19:41.827Z,97627.22
2023-04-14T16:22:14.102Z,97625.78
2023-04-14T16:24:47.623Z,97631.59
2023-04-14T16:27:17.776Z,97627.44
2023-04-14T16:29:48.003Z,97631.09
2023-04-14T16:32:26.939Z,97638.06
2023-04-14T16:35:20.312Z,97634.50
2023-04-14T16:38:08.430Z,97635.13
2023-04-14T16:40:37.265Z,97634.13
2023-04-14T16:43:05.957Z,97633.66
2023-04-14T16:45:34.831Z,97637.88
2023-04-14T16:48:02.975Z,97638.16
2023-04-14T16:50:32.199Z,97638.28
2023-04-14T16:53:00.122Z,97641.16
2023-04-14T16:55:33.772Z,97635.63
2023-04-14T16:58:01.967Z,97639.00
2023-04-14T17:00:30.569Z,97635.38
2023-04-14T17:02:58.758Z,97632.69
2023-04-14T17:05:27.292Z,97635.03
2023-04-14T17:07:55.372Z,97642.66
2023-04-14T17:10:23.451Z,97641.00
2023-04-14T17:12:54.046Z,97639.66
2023-04-14T17:15:22.050Z,97641.66
2023-04-14T17:17:51.250Z,97644.66
2023-04-14T17:20:21.017Z,97643.66
2023-04-14T17:22:51.810Z,97646.66
2023-04-14T17:25:20.983Z,97648.28
2023-04-14T17:27:49.030Z,97649.56
2023-04-14T17:30:18.617Z,97646.06
2023-04-14T17:32:50.325Z,97651.47
2023-04-14T17:35:23.772Z,97644.66
2023-04-14T17:38:14.339Z,97645.47
2023-04-14T17:41:01.570Z,97649.28
2023-04-14T17:43:40.502Z,97641.13
2023-04-14T17:46:35.412Z,97645.94
2023-04-14T17:49:18.933Z,97652.31
2023-04-14T17:52:10.303Z,97656.06
2023-04-14T17:54:52.345Z,97651.59
2023-04-14T17:57:27.350Z,97658.88
2023-04-14T18:00:02.011Z,97656.75
2023-04-14T18:02:59.622Z,97653.09
2023-04-14T18:05:51.237Z,97652.38
2023-04-14T18:08:32.355Z,97650.16
2023-04-14T18:11:29.009Z,97658.50
2023-04-14T18:13:59.658Z,97660.69
2023-04-14T18:16:29.527Z,97654.56
2023-04-14T18:19:19.459Z,97662.41
2023-04-14T18:22:12.872Z,97662.75
2023-04-14T18:24:48.570Z,97671.13
2023-04-14T18:29:51.333Z,97686.44
2023-04-14T18:32:19.548Z,97688.38
2023-04-14T18:34:57.756Z,97690.75
2023-04-14T18:37:27.847Z,97695.75
2023-04-14T18:39:56.700Z,97698.44
2023-04-14T18:42:24.785Z,97698.72
2023-04-14T18:44:53.809Z,97701.28
2023-04-14T18:47:22.290Z,97702.13
2023-04-14T18:49:51.803Z,97705.53
2023-04-14T18:52:19.965Z,97708.75
2023-04-14T18:54:48.181Z,97708.16
2023-04-14T18:57:16.251Z,97703.97
2023-04-14T18:59:44.595Z,97708.16
2023-04-14T19:02:13.775Z,97709.00
2023-04-14T19:04:42.088Z,97717.44
2023-04-14T19:07:11.484Z,97720.09
2023-04-14T19:09:39.676Z,97721.09
2023-04-14T19:12:12.953Z,97715.81
2023-04-14T19:14:53.203Z,97728.31
2023-04-14T19:17:21.225Z,97734.19
2023-04-14T19:19:53.419Z,97731.28
2023-04-14T19:22:22.717Z,97733.53
2023-04-14T19:24:51.141Z,97739.66
2023-04-14T19:27:19.342Z,97742.88
2023-04-14T19:29:47.274Z,97744.09
2023-04-14T19:32:17.923Z,97746.75
2023-04-14T19:34:46.428Z,97751.50
2023-04-14T19:37:15.151Z,97742.69
2023-04-14T19:39:45.339Z,97746.47
2023-04-14T19:42:13.474Z,97745.63
2023-04-14T19:44:44.823Z,97745.00
2023-04-14T19:47:13.217Z,97740.47
2023-04-14T19:49:43.480Z,97742.41
2023-04-14T19:52:12.097Z,97736.16
2023-04-14T19:54:40.258Z,97737.69
2023-04-14T19:57:10.251Z,97735.75
2023-04-14T19:59:38.205Z,97737.53
2023-04-14T20:02:10.553Z,97741.34
2023-04-14T20:04:38.717Z,97734.69
2023-04-14T20:07:07.466Z,97741.13
2023-04-14T20:09:36.109Z,97736.69
2023-04-14T20:12:06.636Z,97733.03
2023-04-14T20:14:35.834Z,97733.28
2023-04-14T20:17:04.027Z,97735.53
2023-04-14T20:19:33.069Z,97733.44
2023-04-14T20:22:01.157Z,97726.38
2023-04-14T20:24:29.388Z,97732.88
2023-04-14T20:26:57.354Z,97729.50
2023-04-14T20:29:25.374Z,97731.00
2023-04-14T20:31:54.626Z,97720.03
2023-04-14T20:34:22.538Z,97723.22
2023-04-14T20:36:52.973Z,97723.50
2023-04-14T20:39:20.878Z,97727.28
2023-04-14T20:41:48.724Z,97724.91
2023-04-14T20:44:17.113Z,97725.19
2023-04-14T20:46:45.174Z,97731.44
2023-04-14T20:49:14.453Z,97728.75
2023-04-14T20:51:42.357Z,97730.88
2023-04-14T20:54:10.446Z,97725.88
2023-04-14T20:56:38.321Z,97719.53
2023-04-14T20:59:06.356Z,97719.41
2023-04-14T21:01:34.388Z,97722.91
2023-04-14T21:04:02.612Z,97718.47
2023-04-14T21:06:33.122Z,97722.38
2023-04-14T21:09:02.067Z,97715.75
2023-04-14T21:11:31.871Z,97722.63
2023-04-14T21:15:31.116Z,97725.75
2023-04-14T21:16:48.564Z,97722.63
2023-04-14T21:19:16.449Z,97725.38
2023-04-14T21:21:45.855Z,97724.75
2023-04-14T21:24:16.013Z,97724.91
2023-04-14T21:26:43.916Z,97722.03
2023-04-14T21:29:11.875Z,97727.94
2023-04-14T21:31:40.123Z,97737.16
2023-04-14T21:34:08.117Z,97733.03
2023-04-14T21:36:36.258Z,97734.22
2023-04-14T21:39:05.648Z,97733.53
2023-04-14T21:41:33.848Z,97726.06
2023-04-14T21:44:01.898Z,97731.69
2023-04-14T21:46:30.454Z,97727.25
2023-04-14T21:48:58.395Z,97724.25
2023-04-14T21:51:27.582Z,97735.50
2023-04-14T21:53:55.852Z,97729.47
2023-04-14T21:56:25.041Z,97729.94
2023-04-14T21:58:52.944Z,97727.00
2023-04-14T22:01:20.920Z,97742.22
2023-04-14T22:03:49.954Z,97732.44
2023-04-14T22:06:19.226Z,97727.94
2023-04-14T22:08:47.187Z,97728.19
2023-04-14T22:11:15.117Z,97733.50
2023-04-14T22:13:44.628Z,97731.53
2023-04-14T22:16:12.482Z,97728.63
2023-04-14T22:18:42.964Z,97723.75
2023-04-14T22:21:12.066Z,97729.28
2023-04-14T22:23:40.593Z,97729.88
2023-04-14T22:26:09.026Z,97744.97
2023-04-14T22:28:37.130Z,97739.69
2023-04-14T22:31:07.900Z,97741.25
2023-04-14T22:33:36.069Z,97744.25
2023-04-14T22:36:06.181Z,97752.16
2023-04-14T22:38:34.747Z,97744.25
2023-04-14T22:41:02.774Z,97754.66
2023-04-14T22:43:30.854Z,97752.59
2023-04-14T22:45:58.782Z,97754.50
2023-04-14T22:48:28.096Z,97749.00
2023-04-14T22:50:56.176Z,97747.94
2023-04-14T22:53:24.056Z,97744.25
2023-04-14T22:55:52.028Z,97752.63
2023-04-14T22:58:21.811Z,97750.22
2023-04-14T23:00:49.674Z,97760.41
2023-04-14T23:03:17.654Z,97764.00
2023-04-14T23:05:47.129Z,97755.19
2023-04-14T23:08:15.648Z,97756.78
2023-04-14T23:10:43.605Z,97759.75
2023-04-14T23:13:11.555Z,97748.88
2023-04-14T23:15:39.507Z,97750.41
2023-04-14T23:18:07.477Z,97746.38
2023-04-14T23:20:35.361Z,97757.25
2023-04-14T23:23:12.005Z,97747.78
2023-04-14T23:25:40.067Z,97754.59
2023-04-14T23:28:08.301Z,97752.31
2023-04-14T23:30:36.803Z,97749.91
2023-04-14T23:33:04.781Z,97755.63
2023-04-14T23:35:32.809Z,97748.34
2023-04-14T23:38:02.438Z,97744.13
2023-04-14T23:40:32.728Z,97750.81
2023-04-14T23:43:01.229Z,97750.59
2023-04-14T23:45:34.053Z,97756.09
2023-04-14T23:48:02.025Z,97749.06
2023-04-14T23:51:00.342Z,97747.06
2023-04-14T23:53:18.103Z,97747.50
2023-04-14T23:55:48.069Z,97741.00
2023-04-14T23:58:26.183Z,97732.81
